»·PEaware :: N496KG KAJO-KVCV

N496KG :: KAJO-KVCV

FLIGHT INFORMATION

Flight Status: Arrived
Operator: Privately registered:
United States
More flights under this callsign
Pilot: Joseph B. (32285)
Aircraft: CIRRUS SR-22 TURBO
(S22T)
More flights by this aircraft type
Origin: KAJO Corona Mun
United States
Destination: KVCV Socal Logistics
United States
More flights between these airports :: More routes between these airports
Route: PDZ V442 APLES
File this flight plan on PilotEdge
Remarks: I-11 Rating
Altitude:
(Current/Filed)
9,000ft
Speed:
(Current/Filed)
175kts
Departed: 25-Nov-20 10:26 AM
Arrived: 25-Nov-20 11:29 AM
Distance/Time
Traveled:
43nm/1:03
Distance/Time
To Go:
Arrived

Flight Plot

Page will automatically refresh every two minutes.


Map Options




Map Legend


Flown Route
Filed Route
Departure Airport
Arrival Airport
Navaid (VOR, NDB)
Fix

Horizontal Profiles

Position Reports

Time Latitude Longitude Heading Altitude Ground
Speed
25-Nov-20 10:15 33.896802 -117.597639 269 536ft 0kts
25-Nov-20 10:16 33.896802 -117.597639 269 536ft 0kts
25-Nov-20 10:17 33.896802 -117.597639 268 536ft 0kts
25-Nov-20 10:18 33.896802 -117.597642 268 536ft 0kts
25-Nov-20 10:19 33.896802 -117.597642 268 536ft 0kts
25-Nov-20 10:20 33.896802 -117.597642 268 536ft 0kts
25-Nov-20 10:21 33.897202 -117.597601 14 536ft 0kts
25-Nov-20 10:22 33.897202 -117.597601 14 536ft 0kts
25-Nov-20 10:23 33.897202 -117.597601 14 536ft 0kts
25-Nov-20 10:24 33.897202 -117.597601 14 536ft 0kts
25-Nov-20 10:25 33.897708 -117.599290 270 536ft 54kts
25-Nov-20 10:26 33.907638 -117.624774 350 1236ft 131kts
25-Nov-20 10:27 33.919360 -117.600647 125 2123ft 138kts
25-Nov-20 10:28 33.903469 -117.575483 64 2850ft 137kts
25-Nov-20 10:29 33.914338 -117.544173 65 3542ft 139kts
25-Nov-20 10:30 33.930373 -117.517345 0 4222ft 135kts
25-Nov-20 10:31 33.957876 -117.519299 358 4853ft 136kts
25-Nov-20 10:32 33.983472 -117.512168 40 5456ft 139kts
25-Nov-20 10:33 33.999502 -117.485938 88 5971ft 152kts
25-Nov-20 10:34 33.972835 -117.471339 216 5980ft 177kts
25-Nov-20 10:35 33.945769 -117.500304 224 5985ft 180kts
25-Nov-20 10:36 33.919087 -117.530063 225 5987ft 181kts
25-Nov-20 10:37 33.924398 -117.560666 355 6794ft 133kts
25-Nov-20 10:38 33.944279 -117.543733 39 7943ft 115kts
25-Nov-20 10:39 33.959204 -117.524966 38 8977ft 110kts
25-Nov-20 10:40 33.978331 -117.502522 38 9002ft 156kts
25-Nov-20 10:41 34.004648 -117.480634 28 8983ft 164kts
25-Nov-20 10:42 34.033866 -117.460494 23 8979ft 165kts
25-Nov-20 10:43 34.065517 -117.441427 22 8977ft 165kts
25-Nov-20 10:44 34.096983 -117.422516 22 8977ft 165kts
25-Nov-20 10:45 34.130665 -117.402266 22 8982ft 166kts
25-Nov-20 10:46 34.161297 -117.383832 22 8990ft 166kts
25-Nov-20 10:47 34.194175 -117.364031 22 9019ft 165kts
25-Nov-20 10:48 34.228866 -117.343112 23 9019ft 166kts
25-Nov-20 10:49 34.259234 -117.324800 23 9018ft 166kts
25-Nov-20 10:50 34.290922 -117.305666 24 9014ft 165kts
25-Nov-20 10:51 34.321676 -117.287076 24 9012ft 164kts
25-Nov-20 10:52 34.351951 -117.268761 25 9011ft 163kts
25-Nov-20 10:53 34.382541 -117.250239 25 9010ft 163kts
25-Nov-20 10:55 34.413378 -117.231552 25 9009ft 163kts
25-Nov-20 10:56 34.444587 -117.212630 25 9008ft 162kts
25-Nov-20 10:57 34.475457 -117.193900 26 9007ft 162kts
25-Nov-20 10:58 34.513681 -117.170686 26 9004ft 162kts
25-Nov-20 10:59 34.546812 -117.150305 23 8979ft 168kts
25-Nov-20 11:00 34.586990 -117.143280 357 8457ft 187kts
25-Nov-20 11:01 34.630180 -117.146982 345 7889ft 190kts
25-Nov-20 11:02 34.672038 -117.161860 333 7310ft 189kts
25-Nov-20 11:03 34.709560 -117.186637 321 6740ft 188kts
25-Nov-20 11:04 34.744929 -117.224295 308 6596ft 172kts
25-Nov-20 11:05 34.770093 -117.266295 302 6604ft 181kts
25-Nov-20 11:06 34.787414 -117.312683 284 6283ft 162kts
25-Nov-20 11:07 34.795098 -117.353023 275 5391ft 150kts
25-Nov-20 11:08 34.778509 -117.377923 169 5200ft 137kts
25-Nov-20 11:09 34.748075 -117.376843 185 5198ft 131kts
25-Nov-20 11:09 34.726608 -117.378456 186 4982ft 96kts
25-Nov-20 11:11 34.700774 -117.380656 185 4420ft 91kts
25-Nov-20 11:12 34.678658 -117.382697 185 3983ft 91kts
25-Nov-20 11:13 34.656556 -117.384590 184 3554ft 90kts
25-Nov-20 11:14 34.636034 -117.386326 182 3187ft 111kts
25-Nov-20 11:14 34.613848 -117.387485 207 3850ft 140kts
25-Nov-20 11:16 34.610729 -117.428075 269 4902ft 141kts
25-Nov-20 11:16 34.611930 -117.459725 282 5637ft 140kts
25-Nov-20 11:17 34.617798 -117.498694 284 6023ft 164kts
25-Nov-20 11:18 34.625411 -117.544327 284 6008ft 175kts
25-Nov-20 11:19 34.655427 -117.561039 1 5998ft 155kts
25-Nov-20 11:20 34.680076 -117.536392 87 5981ft 163kts
25-Nov-20 11:21 34.662518 -117.495783 118 6001ft 166kts
25-Nov-20 11:22 34.644247 -117.459074 118 5421ft 134kts
25-Nov-20 11:23 34.628644 -117.431875 122 4616ft 115kts
25-Nov-20 11:24 34.622897 -117.404994 43 3874ft 106kts
25-Nov-20 11:25 34.636279 -117.388441 62 3827ft 96kts
25-Nov-20 11:26 34.626659 -117.366958 135 3705ft 97kts
25-Nov-20 11:27 34.608148 -117.359084 201 3229ft 100kts
25-Nov-20 11:28 34.597277 -117.370264 217 2850ft 0kts
25-Nov-20 11:29 34.599775 -117.367492 224 2843ft 27kts
25-Nov-20 11:30 34.594359 -117.372732 179 2857ft 22kts
25-Nov-20 11:31 34.592136 -117.372603 171 2861ft 21kts

Navigation Log

Ident Type
Flight plan parsing failed, navigation log unavailable